Anzahl Datensätze: 284
min. Temperatur: -1.4 °C
max. Temperatur: 2.0 °C
max. Windgeschwindigkeit: 4.5 km/h
Niederschlagsumme: 0.0 mm
| Datum |
Zeit |
Temp °C |
Feuchte % |
Taupunkt °C |
Luftdruck hPa |
Wind km/h |
Windrichtung |
Strahlung w/m² |
Niederschlag mm |
|---|---|---|---|---|---|---|---|---|---|
| 18.01.2026 | 00:00 | 1.4 | 94 | 0.5 | 1020.0 | 0.4 | NO | 0 | 0.0 |
| 18.01.2026 | 00:05 | 1.5 | 94 | 0.6 | 1019.9 | 0.9 | NO | 0 | 0.0 |
| 18.01.2026 | 00:10 | 1.9 | 94 | 1.0 | 1019.9 | 0.4 | NNO | 0 | 0.0 |
| 18.01.2026 | 00:15 | 2.0 | 94 | 1.1 | 1019.9 | 0.9 | NNO | 0 | 0.0 |
| 18.01.2026 | 00:20 | 1.8 | 94 | 0.9 | 1019.8 | 0.9 | N | 0 | 0.0 |
| 18.01.2026 | 00:26 | 1.6 | 94 | 0.7 | 1019.7 | 0.4 | N | 0 | 0.0 |
| 18.01.2026 | 00:31 | 1.7 | 94 | 0.8 | 1019.6 | 0.9 | NNO | 0 | 0.0 |
| 18.01.2026 | 00:36 | 1.9 | 94 | 1.0 | 1019.6 | 0.9 | NNO | 0 | 0.0 |
| 18.01.2026 | 00:41 | 2.0 | 94 | 1.1 | 1019.6 | 0.4 | NNO | 0 | 0.0 |
| 18.01.2026 | 00:46 | 2.0 | 94 | 1.1 | 1019.6 | 0.9 | N | 0 | 0.0 |
| 18.01.2026 | 00:51 | 1.9 | 94 | 1.0 | 1019.6 | 0.0 | N | 0 | 0.0 |
| 18.01.2026 | 00:56 | 1.9 | 94 | 1.0 | 1019.7 | 0.0 | N | 0 | 0.0 |
| 18.01.2026 | 01:01 | 1.9 | 94 | 1.0 | 1019.7 | 0.0 | N | 0 | 0.0 |
| 18.01.2026 | 01:06 | 1.9 | 94 | 1.0 | 1019.6 | 0.0 | N | 0 | 0.0 |
| 18.01.2026 | 01:11 | 1.9 | 94 | 1.0 | 1019.7 | 0.0 | N | 0 | 0.0 |
| 18.01.2026 | 01:16 | 1.9 | 94 | 1.0 | 1019.6 | 0.0 | N | 0 | 0.0 |
| 18.01.2026 | 01:21 | 1.9 | 94 | 1.0 | 1019.6 | 0.0 | N | 0 | 0.0 |
| 18.01.2026 | 01:26 | 1.8 | 94 | 0.9 | 1019.5 | 0.0 | N | 0 | 0.0 |
| 18.01.2026 | 01:31 | 1.7 | 94 | 0.8 | 1019.5 | 0.4 | N | 0 | 0.0 |
| 18.01.2026 | 01:36 | 1.6 | 94 | 0.7 | 1019.5 | 0.0 | N | 0 | 0.0 |
| 18.01.2026 | 01:41 | 1.6 | 94 | 0.7 | 1019.5 | 0.0 | N | 0 | 0.0 |
| 18.01.2026 | 01:46 | 1.5 | 94 | 0.6 | 1019.5 | 0.0 | N | 0 | 0.0 |
| 18.01.2026 | 01:51 | 1.5 | 94 | 0.6 | 1019.5 | 0.0 | N | 0 | 0.0 |
| 18.01.2026 | 01:56 | 1.4 | 94 | 0.5 | 1019.5 | 0.0 | N | 0 | 0.0 |
| 18.01.2026 | 02:01 | 1.3 | 94 | 0.4 | 1019.5 | 0.0 | N | 0 | 0.0 |
| 18.01.2026 | 02:06 | 1.1 | 94 | 0.2 | 1019.5 | 0.0 | N | 0 | 0.0 |
| 18.01.2026 | 02:11 | 1.0 | 94 | 0.1 | 1019.4 | 0.0 | N | 0 | 0.0 |
| 18.01.2026 | 02:16 | 1.0 | 94 | 0.1 | 1019.5 | 0.0 | N | 0 | 0.0 |
| 18.01.2026 | 02:21 | 0.9 | 94 | 0.0 | 1019.5 | 0.0 | N | 0 | 0.0 |
| 18.01.2026 | 02:26 | 0.9 | 94 | 0.0 | 1019.5 | 0.0 | N | 0 | 0.0 |
| 18.01.2026 | 02:31 | 0.8 | 94 | -0.1 | 1019.4 | 0.0 | N | 0 | 0.0 |
| 18.01.2026 | 02:36 | 0.8 | 94 | -0.1 | 1019.5 | 0.0 | N | 0 | 0.0 |
| 18.01.2026 | 02:41 | 0.7 | 94 | -0.2 | 1019.5 | 0.0 | N | 0 | 0.0 |
| 18.01.2026 | 02:46 | 0.6 | 94 | -0.3 | 1019.5 | 0.0 | N | 0 | 0.0 |
| 18.01.2026 | 02:51 | 0.5 | 94 | -0.4 | 1019.5 | 0.0 | N | 0 | 0.0 |
| 18.01.2026 | 02:56 | 0.5 | 94 | -0.4 | 1019.6 | 0.0 | N | 0 | 0.0 |
| 18.01.2026 | 03:01 | 0.4 | 94 | -0.5 | 1019.5 | 0.0 | N | 0 | 0.0 |
| 18.01.2026 | 03:06 | 0.4 | 94 | -0.5 | 1019.5 | 0.0 | N | 0 | 0.0 |
| 18.01.2026 | 03:11 | 0.3 | 94 | -0.6 | 1019.5 | 0.0 | N | 0 | 0.0 |
| 18.01.2026 | 03:16 | 0.2 | 94 | -0.7 | 1019.4 | 0.0 | N | 0 | 0.0 |
| 18.01.2026 | 03:21 | 0.2 | 94 | -0.7 | 1019.4 | 0.4 | N | 0 | 0.0 |
| 18.01.2026 | 03:27 | 0.3 | 94 | -0.6 | 1019.4 | 0.4 | N | 0 | 0.0 |
| 18.01.2026 | 03:32 | 0.4 | 94 | -0.5 | 1019.4 | 0.0 | N | 0 | 0.0 |
| 18.01.2026 | 03:37 | 0.4 | 94 | -0.5 | 1019.4 | 0.0 | N | 0 | 0.0 |
| 18.01.2026 | 03:42 | 0.3 | 94 | -0.6 | 1019.4 | 0.0 | N | 0 | 0.0 |
| 18.01.2026 | 03:47 | 0.2 | 94 | -0.7 | 1019.5 | 0.0 | N | 0 | 0.0 |
| 18.01.2026 | 03:52 | 0.1 | 94 | -0.8 | 1019.5 | 0.0 | N | 0 | 0.0 |
| 18.01.2026 | 03:57 | 0.0 | 94 | -0.8 | 1019.5 | 0.0 | N | 0 | 0.0 |
| 18.01.2026 | 04:02 | -0.1 | 94 | -0.9 | 1019.5 | 0.0 | N | 0 | 0.0 |
| 18.01.2026 | 04:07 | -0.1 | 94 | -0.9 | 1019.4 | 0.0 | N | 0 | 0.0 |
| 18.01.2026 | 04:12 | -0.2 | 94 | -1.0 | 1019.3 | 0.0 | N | 0 | 0.0 |
| 18.01.2026 | 04:17 | -0.4 | 94 | -1.2 | 1019.3 | 0.0 | N | 0 | 0.0 |
| 18.01.2026 | 04:22 | -0.5 | 94 | -1.3 | 1019.3 | 0.0 | N | 0 | 0.0 |
| 18.01.2026 | 04:27 | -0.6 | 94 | -1.4 | 1019.2 | 0.0 | N | 0 | 0.0 |
| 18.01.2026 | 04:32 | -0.6 | 94 | -1.4 | 1019.2 | 0.0 | N | 0 | 0.0 |
| 18.01.2026 | 04:37 | -0.6 | 94 | -1.4 | 1019.1 | 0.0 | N | 0 | 0.0 |
| 18.01.2026 | 04:42 | -0.6 | 94 | -1.4 | 1019.1 | 0.0 | N | 0 | 0.0 |
| 18.01.2026 | 04:47 | -0.7 | 94 | -1.5 | 1019.1 | 0.0 | N | 0 | 0.0 |
| 18.01.2026 | 04:52 | -0.7 | 94 | -1.5 | 1019.0 | 0.0 | N | 0 | 0.0 |
| 18.01.2026 | 04:57 | -0.7 | 94 | -1.5 | 1019.0 | 0.0 | N | 0 | 0.0 |
| 18.01.2026 | 05:02 | -0.7 | 94 | -1.5 | 1019.0 | 0.0 | N | 0 | 0.0 |
| 18.01.2026 | 05:07 | -0.8 | 94 | -1.6 | 1019.1 | 0.0 | N | 0 | 0.0 |
| 18.01.2026 | 05:12 | -0.8 | 94 | -1.6 | 1019.1 | 0.0 | N | 0 | 0.0 |
| 18.01.2026 | 05:17 | -0.9 | 94 | -1.7 | 1019.1 | 0.0 | N | 0 | 0.0 |
| 18.01.2026 | 05:22 | -0.9 | 94 | -1.7 | 1019.0 | 0.0 | N | 0 | 0.0 |
| 18.01.2026 | 05:27 | -0.9 | 94 | -1.7 | 1019.2 | 0.0 | N | 0 | 0.0 |
| 18.01.2026 | 05:32 | -0.9 | 94 | -1.7 | 1019.2 | 0.0 | N | 0 | 0.0 |
| 18.01.2026 | 05:37 | -0.9 | 94 | -1.7 | 1019.2 | 0.0 | N | 0 | 0.0 |
| 18.01.2026 | 05:42 | -0.9 | 94 | -1.7 | 1019.2 | 0.0 | N | 0 | 0.0 |
| 18.01.2026 | 05:47 | -1.0 | 94 | -1.8 | 1019.2 | 0.0 | N | 0 | 0.0 |
| 18.01.2026 | 05:52 | -1.1 | 94 | -1.9 | 1019.2 | 0.0 | N | 0 | 0.0 |
| 18.01.2026 | 05:57 | -1.1 | 94 | -1.9 | 1019.1 | 0.0 | N | 0 | 0.0 |
| 18.01.2026 | 06:02 | -1.2 | 94 | -2.0 | 1019.2 | 0.0 | N | 0 | 0.0 |
| 18.01.2026 | 06:08 | -1.3 | 94 | -2.1 | 1019.3 | 0.0 | N | 0 | 0.0 |
| 18.01.2026 | 06:13 | -1.4 | 94 | -2.2 | 1019.2 | 0.0 | N | 0 | 0.0 |
| 18.01.2026 | 06:18 | -1.4 | 94 | -2.2 | 1019.3 | 0.0 | N | 0 | 0.0 |
| 18.01.2026 | 06:23 | -1.4 | 94 | -2.2 | 1019.3 | 0.0 | N | 0 | 0.0 |
| 18.01.2026 | 06:28 | -1.2 | 94 | -2.0 | 1019.3 | 0.0 | N | 0 | 0.0 |
| 18.01.2026 | 06:33 | -1.1 | 94 | -1.9 | 1019.2 | 0.0 | N | 0 | 0.0 |
| 18.01.2026 | 06:38 | -1.0 | 94 | -1.8 | 1019.2 | 0.0 | N | 0 | 0.0 |
| 18.01.2026 | 06:43 | -1.0 | 94 | -1.8 | 1019.2 | 0.0 | N | 0 | 0.0 |
| 18.01.2026 | 06:48 | -1.1 | 94 | -1.9 | 1019.4 | 0.0 | N | 0 | 0.0 |
| 18.01.2026 | 06:53 | -1.1 | 94 | -1.9 | 1019.4 | 0.0 | N | 0 | 0.0 |
| 18.01.2026 | 06:58 | -1.1 | 94 | -1.9 | 1019.4 | 0.0 | N | 0 | 0.0 |
| 18.01.2026 | 07:03 | -1.1 | 94 | -1.9 | 1019.4 | 0.4 | N | 0 | 0.0 |
| 18.01.2026 | 07:08 | -0.8 | 94 | -1.6 | 1019.4 | 0.4 | NNO | 0 | 0.0 |
| 18.01.2026 | 07:13 | -0.6 | 94 | -1.4 | 1019.4 | 0.4 | NNO | 0 | 0.0 |
| 18.01.2026 | 07:18 | -0.5 | 94 | -1.3 | 1019.4 | 0.0 | NNO | 0 | 0.0 |
| 18.01.2026 | 07:23 | -0.5 | 94 | -1.3 | 1019.4 | 0.0 | NNO | 0 | 0.0 |
| 18.01.2026 | 07:28 | -0.4 | 94 | -1.2 | 1019.4 | 0.4 | NNO | 0 | 0.0 |
| 18.01.2026 | 07:33 | -0.4 | 94 | -1.2 | 1019.4 | 0.0 | NNO | 0 | 0.0 |
| 18.01.2026 | 07:38 | -0.5 | 94 | -1.3 | 1019.4 | 0.0 | NNO | 0 | 0.0 |
| 18.01.2026 | 07:43 | -0.5 | 94 | -1.3 | 1019.5 | 0.0 | NNO | 0 | 0.0 |
| 18.01.2026 | 07:48 | -0.6 | 94 | -1.4 | 1019.5 | 0.4 | NNO | 0 | 0.0 |
| 18.01.2026 | 07:53 | -0.6 | 94 | -1.4 | 1019.6 | 0.4 | NNO | 0 | 0.0 |
| 18.01.2026 | 07:58 | -0.6 | 94 | -1.4 | 1019.7 | 0.0 | NNO | 0 | 0.0 |
| 18.01.2026 | 08:03 | -0.6 | 94 | -1.4 | 1019.7 | 0.9 | NNO | 0 | 0.0 |
| 18.01.2026 | 08:08 | -0.6 | 94 | -1.4 | 1019.7 | 0.0 | NNO | 0 | 0.0 |
| 18.01.2026 | 08:13 | -0.7 | 94 | -1.5 | 1019.8 | 0.0 | NNO | 0 | 0.0 |
| 18.01.2026 | 08:18 | -0.9 | 94 | -1.7 | 1019.9 | 0.0 | NNO | 0 | 0.0 |
| 18.01.2026 | 08:23 | -1.0 | 94 | -1.8 | 1019.9 | 0.4 | NNO | 0 | 0.0 |
| 18.01.2026 | 08:28 | -0.9 | 94 | -1.7 | 1020.0 | 0.0 | NNO | 0 | 0.0 |
| 18.01.2026 | 08:33 | -0.8 | 94 | -1.6 | 1020.0 | 0.4 | NNO | 0 | 0.0 |
| 18.01.2026 | 08:38 | -0.7 | 94 | -1.5 | 1020.0 | 0.4 | NNO | 5 | 0.0 |
| 18.01.2026 | 08:43 | -0.6 | 94 | -1.4 | 1020.0 | 0.9 | NNO | 7 | 0.0 |
| 18.01.2026 | 08:48 | -0.5 | 94 | -1.3 | 1020.1 | 1.8 | NO | 9 | 0.0 |
| 18.01.2026 | 08:54 | -0.5 | 94 | -1.3 | 1020.1 | 0.4 | ONO | 12 | 0.0 |
| 18.01.2026 | 08:59 | -0.5 | 94 | -1.3 | 1020.1 | 0.9 | NO | 11 | 0.0 |
| 18.01.2026 | 09:04 | -0.5 | 94 | -1.3 | 1020.1 | 0.9 | NNO | 12 | 0.0 |
| 18.01.2026 | 09:09 | -0.5 | 94 | -1.3 | 1020.2 | 0.4 | NO | 18 | 0.0 |
| 18.01.2026 | 09:14 | -0.5 | 94 | -1.3 | 1020.3 | 1.8 | NO | 18 | 0.0 |
| 18.01.2026 | 09:19 | -0.5 | 94 | -1.3 | 1020.3 | 0.4 | NO | 23 | 0.0 |
| 18.01.2026 | 09:24 | -0.5 | 94 | -1.3 | 1020.2 | 2.2 | NNO | 26 | 0.0 |
| 18.01.2026 | 09:29 | -0.5 | 94 | -1.3 | 1020.3 | 1.8 | NO | 26 | 0.0 |
| 18.01.2026 | 09:34 | -0.5 | 94 | -1.3 | 1020.4 | 0.4 | ONO | 33 | 0.0 |
| 18.01.2026 | 09:39 | -0.4 | 94 | -1.2 | 1020.4 | 0.4 | NO | 33 | 0.0 |
| 18.01.2026 | 09:44 | -0.4 | 94 | -1.2 | 1020.4 | 1.3 | NO | 39 | 0.0 |
| 18.01.2026 | 09:49 | -0.4 | 94 | -1.2 | 1020.4 | 1.8 | NO | 46 | 0.0 |
| 18.01.2026 | 09:54 | -0.4 | 94 | -1.2 | 1020.3 | 1.3 | ONO | 47 | 0.0 |
| 18.01.2026 | 09:59 | -0.4 | 94 | -1.2 | 1020.4 | 1.3 | NO | 60 | 0.0 |
| 18.01.2026 | 10:04 | -0.4 | 94 | -1.2 | 1020.5 | 0.4 | NO | 58 | 0.0 |
| 18.01.2026 | 10:09 | -0.3 | 94 | -1.1 | 1020.5 | 0.9 | ONO | 67 | 0.0 |
| 18.01.2026 | 10:14 | -0.2 | 94 | -1.0 | 1020.5 | 0.9 | ONO | 58 | 0.0 |
| 18.01.2026 | 10:19 | -0.2 | 94 | -1.0 | 1020.5 | 0.4 | NO | 58 | 0.0 |
| 18.01.2026 | 10:24 | -0.2 | 94 | -1.0 | 1020.4 | 0.4 | NO | 65 | 0.0 |
| 18.01.2026 | 10:29 | -0.1 | 94 | -0.9 | 1020.4 | 0.9 | NO | 70 | 0.0 |
| 18.01.2026 | 10:34 | -0.1 | 94 | -0.9 | 1020.4 | 0.4 | NNO | 63 | 0.0 |
| 18.01.2026 | 10:44 | -0.1 | 94 | -0.9 | 1020.4 | 1.3 | NNO | 76 | 0.0 |
| 18.01.2026 | 10:49 | -0.1 | 94 | -0.9 | 1020.4 | 1.8 | NNO | 88 | 0.0 |
| 18.01.2026 | 10:59 | 0.0 | 94 | -0.8 | 1020.4 | 0.9 | ONO | 88 | 0.0 |
| 18.01.2026 | 11:04 | 0.0 | 94 | -0.8 | 1020.4 | 0.9 | ONO | 88 | 0.0 |
| 18.01.2026 | 11:14 | 0.2 | 94 | -0.7 | 1020.6 | 1.3 | O | 84 | 0.0 |
| 18.01.2026 | 11:19 | 0.2 | 94 | -0.7 | 1020.5 | 0.9 | O | 83 | 0.0 |
| 18.01.2026 | 11:24 | 0.3 | 94 | -0.6 | 1020.6 | 1.8 | NO | 86 | 0.0 |
| 18.01.2026 | 11:29 | 0.2 | 94 | -0.7 | 1020.5 | 0.4 | NO | 91 | 0.0 |
| 18.01.2026 | 11:34 | 0.2 | 94 | -0.7 | 1020.4 | 0.9 | NO | 98 | 0.0 |
| 18.01.2026 | 11:39 | 0.3 | 94 | -0.6 | 1020.4 | 0.9 | O | 97 | 0.0 |
| 18.01.2026 | 11:44 | 0.3 | 94 | -0.6 | 1020.4 | 0.9 | ONO | 104 | 0.0 |
| 18.01.2026 | 11:49 | 0.4 | 94 | -0.5 | 1020.4 | 1.8 | NO | 105 | 0.0 |
| 18.01.2026 | 11:55 | 0.4 | 94 | -0.5 | 1020.3 | 0.4 | NO | 107 | 0.0 |
| 18.01.2026 | 12:00 | 0.4 | 94 | -0.5 | 1020.3 | 0.4 | O | 104 | 0.0 |
| 18.01.2026 | 12:05 | 0.5 | 94 | -0.4 | 1020.3 | 1.8 | NO | 109 | 0.0 |
| 18.01.2026 | 12:10 | 0.5 | 94 | -0.4 | 1020.3 | 0.0 | ONO | 107 | 0.0 |
| 18.01.2026 | 12:15 | 0.6 | 94 | -0.3 | 1020.3 | 0.9 | NO | 105 | 0.0 |
| 18.01.2026 | 12:20 | 0.6 | 94 | -0.3 | 1020.2 | 2.2 | NO | 98 | 0.0 |
| 18.01.2026 | 12:25 | 0.5 | 94 | -0.4 | 1020.2 | 0.4 | NO | 104 | 0.0 |
| 18.01.2026 | 12:30 | 0.5 | 94 | -0.4 | 1020.1 | 1.3 | ONO | 107 | 0.0 |
| 18.01.2026 | 12:35 | 0.5 | 94 | -0.4 | 1020.0 | 0.9 | NNO | 100 | 0.0 |
| 18.01.2026 | 12:40 | 0.6 | 94 | -0.3 | 1020.0 | 0.9 | NNO | 105 | 0.0 |
| 18.01.2026 | 12:45 | 0.7 | 94 | -0.2 | 1020.0 | 0.9 | NO | 100 | 0.0 |
| 18.01.2026 | 12:50 | 0.7 | 94 | -0.2 | 1020.0 | 0.4 | O | 102 | 0.0 |
| 18.01.2026 | 12:55 | 0.7 | 94 | -0.2 | 1019.9 | 0.4 | NO | 102 | 0.0 |
| 18.01.2026 | 13:00 | 0.7 | 94 | -0.2 | 1019.9 | 2.2 | NNO | 90 | 0.0 |
| 18.01.2026 | 13:05 | 0.7 | 94 | -0.2 | 1019.8 | 0.9 | NO | 93 | 0.0 |
| 18.01.2026 | 13:10 | 0.8 | 94 | -0.1 | 1019.8 | 0.9 | NO | 95 | 0.0 |
| 18.01.2026 | 13:15 | 0.8 | 94 | -0.1 | 1019.7 | 0.4 | NO | 102 | 0.0 |
| 18.01.2026 | 13:20 | 0.9 | 94 | 0.0 | 1019.7 | 0.9 | ONO | 114 | 0.0 |
| 18.01.2026 | 13:25 | 1.0 | 94 | 0.1 | 1019.6 | 0.0 | O | 135 | 0.0 |
| 18.01.2026 | 13:30 | 1.0 | 94 | 0.1 | 1019.5 | 1.3 | O | 127 | 0.0 |
| 18.01.2026 | 13:35 | 1.1 | 94 | 0.2 | 1019.6 | 0.4 | NO | 134 | 0.0 |
| 18.01.2026 | 13:40 | 1.1 | 94 | 0.2 | 1019.5 | 0.0 | N | 127 | 0.0 |
| 18.01.2026 | 13:45 | 1.3 | 94 | 0.4 | 1019.5 | 0.9 | ONO | 95 | 0.0 |
| 18.01.2026 | 13:50 | 1.2 | 94 | 0.3 | 1019.4 | 0.4 | NNO | 93 | 0.0 |
| 18.01.2026 | 13:55 | 1.2 | 93 | 0.2 | 1019.4 | 0.9 | ONO | 109 | 0.0 |
| 18.01.2026 | 14:00 | 1.1 | 93 | 0.1 | 1019.4 | 0.9 | NO | 104 | 0.0 |
| 18.01.2026 | 14:05 | 1.1 | 93 | 0.1 | 1019.4 | 0.9 | NO | 104 | 0.0 |
| 18.01.2026 | 14:10 | 1.2 | 93 | 0.2 | 1019.4 | 1.3 | ONO | 105 | 0.0 |
| 18.01.2026 | 14:15 | 1.2 | 93 | 0.2 | 1019.4 | 0.9 | NO | 100 | 0.0 |
| 18.01.2026 | 14:20 | 1.2 | 93 | 0.2 | 1019.4 | 1.8 | NO | 105 | 0.0 |
| 18.01.2026 | 14:25 | 1.2 | 93 | 0.2 | 1019.4 | 0.4 | ONO | 97 | 0.0 |
| 18.01.2026 | 14:30 | 1.3 | 93 | 0.3 | 1019.4 | 0.0 | OSO | 102 | 0.0 |
| 18.01.2026 | 14:35 | 1.4 | 93 | 0.4 | 1019.4 | 1.8 | NO | 79 | 0.0 |
| 18.01.2026 | 14:40 | 1.4 | 93 | 0.4 | 1019.3 | 0.9 | ONO | 79 | 0.0 |
| 18.01.2026 | 14:45 | 1.4 | 93 | 0.4 | 1019.3 | 1.3 | NO | 79 | 0.0 |
| 18.01.2026 | 14:51 | 1.4 | 93 | 0.4 | 1019.3 | 0.9 | NO | 81 | 0.0 |
| 18.01.2026 | 14:56 | 1.4 | 93 | 0.4 | 1019.3 | 1.3 | OSO | 70 | 0.0 |
| 18.01.2026 | 15:01 | 1.4 | 93 | 0.4 | 1019.2 | 0.9 | ONO | 72 | 0.0 |
| 18.01.2026 | 15:06 | 1.4 | 93 | 0.4 | 1019.1 | 0.9 | NO | 69 | 0.0 |
| 18.01.2026 | 15:11 | 1.4 | 93 | 0.4 | 1019.1 | 0.9 | O | 70 | 0.0 |
| 18.01.2026 | 15:16 | 1.4 | 93 | 0.4 | 1019.2 | 1.3 | O | 65 | 0.0 |
| 18.01.2026 | 15:21 | 1.4 | 93 | 0.4 | 1019.2 | 2.7 | NO | 62 | 0.0 |
| 18.01.2026 | 15:26 | 1.4 | 93 | 0.4 | 1019.2 | 0.4 | NO | 53 | 0.0 |
| 18.01.2026 | 15:31 | 1.4 | 93 | 0.4 | 1019.2 | 1.3 | NO | 51 | 0.0 |
| 18.01.2026 | 15:36 | 1.3 | 93 | 0.3 | 1019.2 | 0.9 | NNO | 49 | 0.0 |
| 18.01.2026 | 15:41 | 1.3 | 93 | 0.3 | 1019.2 | 2.2 | NO | 47 | 0.0 |
| 18.01.2026 | 15:46 | 1.3 | 93 | 0.3 | 1019.2 | 2.2 | ONO | 46 | 0.0 |
| 18.01.2026 | 15:51 | 1.4 | 93 | 0.4 | 1019.2 | 1.3 | ONO | 40 | 0.0 |
| 18.01.2026 | 15:56 | 1.4 | 93 | 0.4 | 1019.2 | 1.8 | O | 37 | 0.0 |
| 18.01.2026 | 16:01 | 1.4 | 93 | 0.4 | 1019.2 | 0.4 | O | 33 | 0.0 |
| 18.01.2026 | 16:06 | 1.4 | 93 | 0.4 | 1019.2 | 0.4 | O | 28 | 0.0 |
| 18.01.2026 | 16:11 | 1.4 | 93 | 0.4 | 1019.3 | 1.3 | NNO | 25 | 0.0 |
| 18.01.2026 | 16:16 | 1.4 | 93 | 0.4 | 1019.2 | 2.2 | NO | 25 | 0.0 |
| 18.01.2026 | 16:21 | 1.4 | 93 | 0.4 | 1019.2 | 1.3 | SO | 23 | 0.0 |
| 18.01.2026 | 16:26 | 1.4 | 93 | 0.4 | 1019.2 | 1.3 | ONO | 18 | 0.0 |
| 18.01.2026 | 16:31 | 1.4 | 93 | 0.4 | 1019.1 | 0.4 | NO | 12 | 0.0 |
| 18.01.2026 | 16:36 | 1.4 | 93 | 0.4 | 1019.1 | 0.4 | OSO | 11 | 0.0 |
| 18.01.2026 | 16:41 | 1.4 | 93 | 0.4 | 1019.1 | 1.3 | OSO | 9 | 0.0 |
| 18.01.2026 | 16:46 | 1.4 | 93 | 0.4 | 1019.2 | 1.3 | OSO | 7 | 0.0 |
| 18.01.2026 | 16:51 | 1.4 | 93 | 0.4 | 1019.2 | 0.9 | ONO | 5 | 0.0 |
| 18.01.2026 | 16:56 | 1.4 | 93 | 0.4 | 1019.3 | 1.8 | O | 5 | 0.0 |
| 18.01.2026 | 17:01 | 1.4 | 93 | 0.4 | 1019.3 | 0.4 | ONO | 0 | 0.0 |
| 18.01.2026 | 17:06 | 1.4 | 93 | 0.4 | 1019.3 | 1.8 | O | 0 | 0.0 |
| 18.01.2026 | 17:11 | 1.4 | 93 | 0.4 | 1019.3 | 1.3 | OSO | 0 | 0.0 |
| 18.01.2026 | 17:16 | 1.4 | 93 | 0.4 | 1019.3 | 0.0 | ONO | 0 | 0.0 |
| 18.01.2026 | 17:21 | 1.5 | 93 | 0.5 | 1019.4 | 3.1 | O | 0 | 0.0 |
| 18.01.2026 | 17:26 | 1.5 | 93 | 0.5 | 1019.4 | 0.9 | O | 0 | 0.0 |
| 18.01.2026 | 17:31 | 1.5 | 93 | 0.5 | 1019.4 | 0.4 | ONO | 0 | 0.0 |
| 18.01.2026 | 17:36 | 1.5 | 93 | 0.5 | 1019.4 | 0.9 | NO | 0 | 0.0 |
| 18.01.2026 | 17:42 | 1.5 | 93 | 0.5 | 1019.5 | 0.9 | ONO | 0 | 0.0 |
| 18.01.2026 | 17:47 | 1.5 | 93 | 0.5 | 1019.5 | 0.4 | ONO | 0 | 0.0 |
| 18.01.2026 | 17:52 | 1.5 | 93 | 0.5 | 1019.5 | 0.9 | NO | 0 | 0.0 |
| 18.01.2026 | 17:57 | 1.6 | 93 | 0.6 | 1019.5 | 0.9 | O | 0 | 0.0 |
| 18.01.2026 | 18:02 | 1.6 | 93 | 0.6 | 1019.5 | 0.9 | O | 0 | 0.0 |
| 18.01.2026 | 18:07 | 1.6 | 93 | 0.6 | 1019.5 | 0.9 | NO | 0 | 0.0 |
| 18.01.2026 | 18:12 | 1.6 | 93 | 0.6 | 1019.5 | 0.4 | NO | 0 | 0.0 |
| 18.01.2026 | 18:17 | 1.7 | 93 | 0.7 | 1019.6 | 1.3 | O | 0 | 0.0 |
| 18.01.2026 | 18:22 | 1.7 | 93 | 0.7 | 1019.7 | 0.0 | O | 0 | 0.0 |
| 18.01.2026 | 18:27 | 1.7 | 93 | 0.7 | 1019.7 | 0.0 | O | 0 | 0.0 |
| 18.01.2026 | 18:32 | 1.7 | 93 | 0.7 | 1019.7 | 0.9 | O | 0 | 0.0 |
| 18.01.2026 | 18:37 | 1.8 | 93 | 0.8 | 1019.7 | 1.8 | NO | 0 | 0.0 |
| 18.01.2026 | 18:42 | 1.8 | 93 | 0.8 | 1019.7 | 0.4 | OSO | 0 | 0.0 |
| 18.01.2026 | 18:47 | 1.8 | 93 | 0.8 | 1019.6 | 0.9 | O | 0 | 0.0 |
| 18.01.2026 | 18:52 | 1.8 | 93 | 0.8 | 1019.7 | 0.9 | O | 0 | 0.0 |
| 18.01.2026 | 18:57 | 1.8 | 93 | 0.8 | 1019.6 | 0.9 | ONO | 0 | 0.0 |
| 18.01.2026 | 19:02 | 1.8 | 93 | 0.8 | 1019.7 | 0.0 | O | 0 | 0.0 |
| 18.01.2026 | 19:07 | 1.8 | 93 | 0.8 | 1019.7 | 0.0 | O | 0 | 0.0 |
| 18.01.2026 | 19:12 | 1.8 | 93 | 0.8 | 1019.7 | 0.4 | SO | 0 | 0.0 |
| 18.01.2026 | 19:17 | 1.8 | 93 | 0.8 | 1019.8 | 0.9 | ONO | 0 | 0.0 |
| 18.01.2026 | 19:22 | 1.8 | 93 | 0.8 | 1019.8 | 0.9 | ONO | 0 | 0.0 |
| 18.01.2026 | 19:27 | 1.8 | 93 | 0.8 | 1019.8 | 0.9 | OSO | 0 | 0.0 |
| 18.01.2026 | 19:32 | 1.8 | 93 | 0.8 | 1019.8 | 1.8 | O | 0 | 0.0 |
| 18.01.2026 | 19:37 | 1.7 | 93 | 0.7 | 1019.8 | 0.4 | O | 0 | 0.0 |
| 18.01.2026 | 19:42 | 1.7 | 93 | 0.7 | 1019.8 | 0.9 | O | 0 | 0.0 |
| 18.01.2026 | 19:47 | 1.6 | 93 | 0.6 | 1019.8 | 1.3 | ONO | 0 | 0.0 |
| 18.01.2026 | 19:52 | 1.6 | 93 | 0.6 | 1019.7 | 0.9 | OSO | 0 | 0.0 |
| 18.01.2026 | 19:57 | 1.6 | 93 | 0.6 | 1019.8 | 0.4 | NO | 0 | 0.0 |
| 18.01.2026 | 20:02 | 1.6 | 93 | 0.6 | 1019.8 | 0.9 | OSO | 0 | 0.0 |
| 18.01.2026 | 20:07 | 1.6 | 93 | 0.6 | 1019.9 | 1.3 | NO | 0 | 0.0 |
| 18.01.2026 | 20:12 | 1.5 | 93 | 0.5 | 1019.9 | 0.9 | O | 0 | 0.0 |
| 18.01.2026 | 20:17 | 1.5 | 93 | 0.5 | 1020.0 | 1.8 | OSO | 0 | 0.0 |
| 18.01.2026 | 20:22 | 1.5 | 93 | 0.5 | 1020.0 | 0.9 | OSO | 0 | 0.0 |
| 18.01.2026 | 20:28 | 1.5 | 93 | 0.5 | 1020.0 | 1.3 | ONO | 0 | 0.0 |
| 18.01.2026 | 20:33 | 1.5 | 93 | 0.5 | 1020.0 | 0.0 | O | 0 | 0.0 |
| 18.01.2026 | 20:38 | 1.5 | 93 | 0.5 | 1020.0 | 0.4 | O | 0 | 0.0 |
| 18.01.2026 | 20:43 | 1.4 | 93 | 0.4 | 1020.0 | 2.2 | O | 0 | 0.0 |
| 18.01.2026 | 20:48 | 1.4 | 93 | 0.4 | 1020.0 | 0.4 | OSO | 0 | 0.0 |
| 18.01.2026 | 20:53 | 1.4 | 93 | 0.4 | 1020.0 | 0.9 | O | 0 | 0.0 |
| 18.01.2026 | 20:58 | 1.3 | 93 | 0.3 | 1020.0 | 0.9 | SSO | 0 | 0.0 |
| 18.01.2026 | 21:03 | 1.3 | 93 | 0.3 | 1020.0 | 0.9 | OSO | 0 | 0.0 |
| 18.01.2026 | 21:08 | 1.2 | 93 | 0.2 | 1019.9 | 0.4 | SO | 0 | 0.0 |
| 18.01.2026 | 21:13 | 1.2 | 93 | 0.2 | 1019.9 | 0.4 | NO | 0 | 0.0 |
| 18.01.2026 | 21:18 | 1.1 | 93 | 0.1 | 1020.0 | 0.9 | ONO | 0 | 0.0 |
| 18.01.2026 | 21:23 | 1.1 | 93 | 0.1 | 1019.9 | 0.9 | NO | 0 | 0.0 |
| 18.01.2026 | 21:28 | 1.0 | 93 | 0.0 | 1019.9 | 0.9 | SO | 0 | 0.0 |
| 18.01.2026 | 21:33 | 1.0 | 93 | 0.0 | 1020.0 | 0.4 | SO | 0 | 0.0 |
| 18.01.2026 | 21:38 | 1.0 | 93 | 0.0 | 1020.0 | 0.4 | NO | 0 | 0.0 |
| 18.01.2026 | 21:43 | 1.0 | 93 | 0.0 | 1020.1 | 0.0 | NO | 0 | 0.0 |
| 18.01.2026 | 21:48 | 1.0 | 94 | 0.1 | 1020.1 | 0.9 | O | 0 | 0.0 |
| 18.01.2026 | 21:53 | 0.9 | 94 | 0.0 | 1020.1 | 1.3 | O | 0 | 0.0 |
| 18.01.2026 | 21:58 | 0.9 | 94 | 0.0 | 1020.1 | 1.8 | ONO | 0 | 0.0 |
| 18.01.2026 | 22:03 | 0.9 | 94 | 0.0 | 1020.0 | 2.7 | ONO | 0 | 0.0 |
| 18.01.2026 | 22:08 | 0.9 | 93 | -0.1 | 1019.9 | 1.3 | O | 0 | 0.0 |
| 18.01.2026 | 22:13 | 0.9 | 93 | -0.1 | 1019.9 | 1.3 | ONO | 0 | 0.0 |
| 18.01.2026 | 22:18 | 0.8 | 93 | -0.2 | 1019.9 | 0.9 | S | 0 | 0.0 |
| 18.01.2026 | 22:23 | 0.8 | 93 | -0.2 | 1019.9 | 0.4 | NO | 0 | 0.0 |
| 18.01.2026 | 22:28 | 0.8 | 94 | -0.1 | 1019.9 | 0.4 | ONO | 0 | 0.0 |
| 18.01.2026 | 22:33 | 0.8 | 94 | -0.1 | 1019.9 | 0.4 | O | 0 | 0.0 |
| 18.01.2026 | 22:38 | 0.8 | 94 | -0.1 | 1019.8 | 0.9 | NO | 0 | 0.0 |
| 18.01.2026 | 22:43 | 0.8 | 94 | -0.1 | 1019.8 | 1.8 | NO | 0 | 0.0 |
| 18.01.2026 | 22:48 | 0.8 | 94 | -0.1 | 1019.9 | 0.0 | OSO | 0 | 0.0 |
| 18.01.2026 | 22:53 | 0.8 | 94 | -0.1 | 1019.8 | 0.9 | O | 0 | 0.0 |
| 18.01.2026 | 22:58 | 0.8 | 94 | -0.1 | 1019.9 | 0.0 | O | 0 | 0.0 |
| 18.01.2026 | 23:03 | 0.9 | 94 | 0.0 | 1019.8 | 0.9 | NO | 0 | 0.0 |
| 18.01.2026 | 23:09 | 0.9 | 94 | 0.0 | 1019.8 | 0.9 | NO | 0 | 0.0 |
| 18.01.2026 | 23:14 | 0.8 | 94 | -0.1 | 1019.8 | 1.8 | ONO | 0 | 0.0 |
| 18.01.2026 | 23:19 | 0.9 | 94 | 0.0 | 1019.7 | 0.9 | NO | 0 | 0.0 |
| 18.01.2026 | 23:24 | 0.9 | 94 | 0.0 | 1019.7 | 1.3 | NO | 0 | 0.0 |
| 18.01.2026 | 23:29 | 0.9 | 94 | 0.0 | 1019.7 | 1.3 | ONO | 0 | 0.0 |
| 18.01.2026 | 23:34 | 0.9 | 94 | 0.0 | 1019.8 | 0.0 | ONO | 0 | 0.0 |
| 18.01.2026 | 23:39 | 0.9 | 94 | 0.0 | 1019.8 | 0.4 | ONO | 0 | 0.0 |
| 18.01.2026 | 23:44 | 0.9 | 94 | 0.0 | 1019.8 | 0.4 | NNO | 0 | 0.0 |
| 18.01.2026 | 23:49 | 0.9 | 94 | 0.0 | 1019.8 | 0.4 | O | 0 | 0.0 |
| 18.01.2026 | 23:54 | 0.9 | 94 | 0.0 | 1019.8 | 1.3 | O | 0 | 0.0 |
| 18.01.2026 | 23:59 | 0.9 | 94 | 0.0 | 1019.7 | 0.0 | O | 0 | 0.0 |